Relevés horaires Oron (Suisse)


Relevés horaires à Oron - Lundi 13 Août 2018
Heure UTC1 Température [°C] Vent [km/h] Hum. [%] Pres.4 [hPa] Visi. [Km] Nébu. [octa] Préc.5 [mm] Cond.
2m. Res. Ros. Dir.2 Vit. Moy. Raf.3
23:00 15.2 14.9 14.8 SO 9.3 -- -- 97 850 -- -- -- --
22:00 16.3 16 14.1 SSO 11.1 -- -- 87 850 -- -- -- --
21:00 16.4 16.4 14.2 SSO 5.6 -- 38.9 87 850(1.1/3h) -- -- -- --
20:00 16.7 16.7 13.4 S 7.4 -- -- 81 850 -- -- -- --
19:00 16.5 16.1 14.6 SSO 13.0 -- -- 89 850 -- -- -- --
18:00 18.0 18.0 15.6 OSO 11.1 -- 40.7 86 850(-0.2/3h) -- -- 2/12h
--
17:00 19.1 19.1 15.0 SSO 13.0 -- -- 77 850 -- -- -- --
16:00 20.9 20.9 15.5 SO 14.8 -- -- 71 850 -- -- -- --
15:00 20.8 20.8 15.9 SO 18.5 -- 40.7 74 850(-0.4/3h) -- -- -- --
14:00 19.6 19.3 15.4 SO 24.1 -- -- 77 850 -- -- -- --
13:00 19.5 19.3 15.2 OSO 20.4 -- -- 76 850 -- -- -- --
12:00 20.0 20.0 16.1 SO 16.7 -- 31.5 78 850(-0.7/3h) -- -- 1/6h
--
11:00 18.8 18.8 16.3 SO 11.1 -- -- 85 850 -- -- -- --
10:00 18.0 18.0 15.6 SO 9.3 -- -- 86 850 -- -- -- --
09:00 17.1 17.1 15.3 SSO 9.3 -- 27.8 89 850(1.0/3h) -- -- -- --
08:00 16.4 16 15.1 SO 13.0 -- -- 92 850 -- -- -- --
07:00 17.5 17.5 15.6 OSO 7.4 -- -- 89 850 -- -- -- --
06:00 18.2 18.2 14.6 E 1.9 -- 51.9 80 850(0.0/3h) -- -- 0.8/12h
0.8/24h
--
05:00 17.0 17.0 16.0 SSO 9.3 -- -- 94 850 -- -- -- --
04:00 19.4 19.3 14.8 OSO 18.5 -- -- 75 850 -- -- -- --
03:00 19.4 19.4 12.6 SSO 9.3 -- 25.9 65 850(-0.4/3h) -- -- -- --
02:00 20.0 20.0 10.4 SSE 11.1 -- -- 54 850 -- -- -- --
01:00 19.8 19.8 9.5 SSO 13.0 -- -- 51 850 -- -- -- --
00:00 20.3 20.3 9.2 S 9.3 -- 18.5 49 850(-1.0/3h) -- -- 0/6h
--

1 Coordinated Universal Time. Actuellement il est 13:00 locale et 11:00 UTC.

2 Le vent souffle depuis la direction indiquée vers la direction oposée.

3 Les rafales max. sont disponible 40 min après l'heure du relevé.

4 Pour les stations d'altitude (plus de 600m) le géopotentiel du niveau le plus proche de la pression obligatoire est indiqué.

5 Les stations disposant d'un diffuseur peuvent indiquer "trace". Cela signifie que des précipitations ont touchés le sol mais que la quantité est inférieure à 0.1 mm.

Récapitulatif de la journée
Température [°C] Vent [km/h] Ensoleillement4 [h] Precipitations totale5 [mm] Pression [Hpa]
Min1 Max.2 Moy.3 Max. Min Max.
16.9 20.9 0 51.9 2 h 54 min 3.2 850.0 850.0

1 Température minimale relevée entre 18:00 UTC la veille et 18:00 UTC le jour donné.

2 Température maximale relevée entre 06:00 UTC le jour donné et 06:00 UTC le lendemain.

3 Vent moyen de la journée basé sur les relevés horaires.

4 Ensoleillement en heures relevé entre 06:00 UTC la veille et 06:00 UTC le jour donné.

5 Précipitations totales tombées entre 06:00 UTC la jour donné et 06:00 UTC le lendemain.

Graphiques horaires